sensor_id;sensor_type;location;lat;lon;timestamp;pressure;altitude;pressure_sealevel;temperature;humidity
56074;BME280;41950;55.840;37.442;2023-04-20T00:00:52;100368.19;;;9.48;34.77
56074;BME280;41950;55.840;37.442;2023-04-20T00:03:17;100346.63;;;9.30;34.79
56074;BME280;41950;55.840;37.442;2023-04-20T00:05:46;100335.44;;;9.18;34.87
56074;BME280;41950;55.840;37.442;2023-04-20T00:08:14;100350.09;;;9.28;35.38
56074;BME280;41950;55.840;37.442;2023-04-20T00:10:43;100345.78;;;9.22;34.99
56074;BME280;41950;55.840;37.442;2023-04-20T00:13:10;100396.69;;;9.49;35.17
56074;BME280;41950;55.840;37.442;2023-04-20T00:15:36;100389.78;;;9.47;35.23
56074;BME280;41950;55.840;37.442;2023-04-20T00:18:02;100391.53;;;9.39;35.73
56074;BME280;41950;55.840;37.442;2023-04-20T00:20:30;100378.59;;;9.20;36.10
56074;BME280;41950;55.840;37.442;2023-04-20T00:22:56;100391.56;;;9.16;36.67
56074;BME280;41950;55.840;37.442;2023-04-20T00:25:21;100383.75;;;8.99;36.90
56074;BME280;41950;55.840;37.442;2023-04-20T00:27:50;100327.69;;;8.63;36.96
56074;BME280;41950;55.840;37.442;2023-04-20T00:30:16;100362.22;;;8.83;37.33
56074;BME280;41950;55.840;37.442;2023-04-20T00:32:42;100365.66;;;8.82;37.38
56074;BME280;41950;55.840;37.442;2023-04-20T00:35:08;100373.41;;;8.87;37.25
56074;BME280;41950;55.840;37.442;2023-04-20T00:37:34;100362.22;;;8.77;37.77
56074;BME280;41950;55.840;37.442;2023-04-20T00:40:01;100333.72;;;8.54;37.75
56074;BME280;41950;55.840;37.442;2023-04-20T00:42:27;100381.19;;;8.84;38.05
56074;BME280;41950;55.840;37.442;2023-04-20T00:44:53;100360.47;;;8.78;38.01
56074;BME280;41950;55.840;37.442;2023-04-20T00:47:18;100377.72;;;8.92;37.68
56074;BME280;41950;55.840;37.442;2023-04-20T00:49:44;100372.56;;;8.92;37.62
56074;BME280;41950;55.840;37.442;2023-04-20T00:52:12;100262.94;;;8.25;37.28
56074;BME280;41950;55.840;37.442;2023-04-20T00:54:38;100350.13;;;8.79;37.41
56074;BME280;41950;55.840;37.442;2023-04-20T00:57:04;100360.47;;;8.84;37.48
56074;BME280;41950;55.840;37.442;2023-04-20T00:59:31;100356.16;;;8.80;37.81
56074;BME280;41950;55.840;37.442;2023-04-20T01:01:57;100368.25;;;8.85;37.84
56074;BME280;41950;55.840;37.442;2023-04-20T01:04:23;100364.78;;;8.89;37.80
56074;BME280;41950;55.840;37.442;2023-04-20T01:06:49;100291.47;;;8.49;38.16
56074;BME280;41950;55.840;37.442;2023-04-20T01:09:15;100331.97;;;8.72;38.17
56074;BME280;41950;55.840;37.442;2023-04-20T01:11:43;100199.09;;;7.92;38.08
56074;BME280;41950;55.840;37.442;2023-04-20T01:14:08;100334.56;;;8.70;38.60
56074;BME280;41950;55.840;37.442;2023-04-20T01:16:35;100338.03;;;8.66;38.21
56074;BME280;41950;55.840;37.442;2023-04-20T01:19:02;100356.13;;;8.71;38.15
56074;BME280;41950;55.840;37.442;2023-04-20T01:21:28;100351.81;;;8.66;38.30
56074;BME280;41950;55.840;37.442;2023-04-20T01:23:54;100293.09;;;8.27;38.80
56074;BME280;41950;55.840;37.442;2023-04-20T01:26:21;100351.81;;;8.57;39.48
56074;BME280;41950;55.840;37.442;2023-04-20T01:28:47;100327.63;;;8.42;39.61
56074;BME280;41950;55.840;37.442;2023-04-20T01:31:13;100337.16;;;8.50;39.41
56074;BME280;41950;55.840;37.442;2023-04-20T01:33:39;100281.84;;;8.13;39.18
56074;BME280;41950;55.840;37.442;2023-04-20T01:36:06;100237.00;;;7.85;39.17
56074;BME280;41950;55.840;37.442;2023-04-20T01:38:32;100345.75;;;8.45;39.20
56074;BME280;41950;55.840;37.442;2023-04-20T01:41:02;100320.69;;;8.31;39.31
56074;BME280;41950;55.840;37.442;2023-04-20T01:43:31;100303.41;;;8.18;39.07
56074;BME280;41950;55.840;37.442;2023-04-20T01:45:58;100278.41;;;8.03;38.99
56074;BME280;41950;55.840;37.442;2023-04-20T01:48:24;100324.13;;;8.26;39.32
56074;BME280;41950;55.840;37.442;2023-04-20T01:50:51;100332.75;;;8.29;39.43
56074;BME280;41950;55.840;37.442;2023-04-20T01:53:19;100337.13;;;8.35;39.65
56074;BME280;41950;55.840;37.442;2023-04-20T01:55:45;100312.88;;;8.15;39.69
56074;BME280;41950;55.840;37.442;2023-04-20T01:58:13;100332.75;;;8.25;39.88
56074;BME280;41950;55.840;37.442;2023-04-20T02:00:39;100309.44;;;8.06;39.93
56074;BME280;41950;55.840;37.442;2023-04-20T02:03:06;100249.00;;;7.68;40.53
56074;BME280;41950;55.840;37.442;2023-04-20T02:05:32;100279.19;;;7.86;40.55
56074;BME280;41950;55.840;37.442;2023-04-20T02:07:58;100298.22;;;7.97;40.48
56074;BME280;41950;55.840;37.442;2023-04-20T02:10:24;100230.88;;;7.60;40.24
56074;BME280;41950;55.840;37.442;2023-04-20T02:12:50;100277.47;;;7.88;40.34
56074;BME280;41950;55.840;37.442;2023-04-20T02:15:17;100272.31;;;7.83;40.39
56074;BME280;41950;55.840;37.442;2023-04-20T02:17:43;100328.38;;;8.09;40.64
56074;BME280;41950;55.840;37.442;2023-04-20T02:20:11;100287.81;;;7.89;40.71
56074;BME280;41950;55.840;37.442;2023-04-20T02:22:37;100270.56;;;7.81;40.76
56074;BME280;41950;55.840;37.442;2023-04-20T02:25:05;100271.44;;;7.80;40.75
56074;BME280;41950;55.840;37.442;2023-04-20T02:27:32;100303.34;;;7.92;40.94
56074;BME280;41950;55.840;37.442;2023-04-20T02:29:59;100293.84;;;7.82;40.92
56074;BME280;41950;55.840;37.442;2023-04-20T02:32:25;100337.84;;;7.99;41.17
56074;BME280;41950;55.840;37.442;2023-04-20T02:34:52;100313.66;;;7.88;41.15
56074;BME280;41950;55.840;37.442;2023-04-20T02:37:19;100254.13;;;7.56;41.24
56074;BME280;41950;55.840;37.442;2023-04-20T02:39:45;100335.25;;;7.94;41.34
56074;BME280;41950;55.840;37.442;2023-04-20T02:42:10;100323.13;;;7.89;41.79
56074;BME280;41950;55.840;37.442;2023-04-20T02:44:36;100270.44;;;7.47;41.72
56074;BME280;41950;55.840;37.442;2023-04-20T02:47:02;100326.56;;;7.79;41.86
56074;BME280;41950;55.840;37.442;2023-04-20T02:49:30;100307.59;;;7.72;42.12
56074;BME280;41950;55.840;37.442;2023-04-20T02:51:56;100316.19;;;7.72;42.12
56074;BME280;41950;55.840;37.442;2023-04-20T02:54:24;100272.16;;;7.48;41.96
56074;BME280;41950;55.840;37.442;2023-04-20T02:56:50;100272.19;;;7.51;41.99
56074;BME280;41950;55.840;37.442;2023-04-20T02:59:16;100287.72;;;7.63;41.90
56074;BME280;41950;55.840;37.442;2023-04-20T03:01:42;100289.44;;;7.63;42.12
56074;BME280;41950;55.840;37.442;2023-04-20T03:04:08;100172.09;;;7.01;42.11
56074;BME280;41950;55.840;37.442;2023-04-20T03:06:33;100292.09;;;7.75;42.38
56074;BME280;41950;55.840;37.442;2023-04-20T03:09:02;100321.47;;;7.98;42.51
56074;BME280;41950;55.840;37.442;2023-04-20T03:11:28;100321.47;;;8.00;42.06
56074;BME280;41950;55.840;37.442;2023-04-20T03:13:54;100234.31;;;7.53;42.12
56074;BME280;41950;55.840;37.442;2023-04-20T03:16:19;100316.31;;;7.97;41.95
56074;BME280;41950;55.840;37.442;2023-04-20T03:18:45;100289.53;;;7.89;42.09
56074;BME280;41950;55.840;37.442;2023-04-20T03:21:11;100280.94;;;7.87;42.31
56074;BME280;41950;55.840;37.442;2023-04-20T03:23:37;100207.63;;;7.51;42.29
56074;BME280;41950;55.840;37.442;2023-04-20T03:26:03;100287.03;;;8.07;42.02
56074;BME280;41950;55.840;37.442;2023-04-20T03:28:29;100306.91;;;8.22;42.12
56074;BME280;41950;55.840;37.442;2023-04-20T03:30:55;100279.28;;;8.10;42.27
56074;BME280;41950;55.840;37.442;2023-04-20T03:33:20;100306.03;;;8.24;42.27
56074;BME280;41950;55.840;37.442;2023-04-20T03:35:46;100257.69;;;7.91;42.27
56074;BME280;41950;55.840;37.442;2023-04-20T03:38:14;100287.03;;;8.15;42.15
56074;BME280;41950;55.840;37.442;2023-04-20T03:40:41;100292.22;;;8.19;42.21
56074;BME280;41950;55.840;37.442;2023-04-20T03:43:06;100262.03;;;8.18;42.32
56074;BME280;41950;55.840;37.442;2023-04-20T03:45:32;100274.19;;;8.39;41.79
56074;BME280;41950;55.840;37.442;2023-04-20T03:47:58;100293.19;;;8.52;41.61
56074;BME280;41950;55.840;37.442;2023-04-20T03:50:24;100289.72;;;8.53;41.98
56074;BME280;41950;55.840;37.442;2023-04-20T03:52:49;100296.63;;;8.60;42.00
56074;BME280;41950;55.840;37.442;2023-04-20T03:55:16;100262.97;;;8.40;42.12
56074;BME280;41950;55.840;37.442;2023-04-20T03:57:42;100313.00;;;8.71;42.18
56074;BME280;41950;55.840;37.442;2023-04-20T04:00:08;100307.84;;;8.82;41.85
56074;BME280;41950;55.840;37.442;2023-04-20T04:02:35;100261.25;;;8.62;41.76
56074;BME280;41950;55.840;37.442;2023-04-20T04:05:05;100305.25;;;8.91;42.20
56074;BME280;41950;55.840;37.442;2023-04-20T04:07:31;100294.88;;;8.94;42.02
56074;BME280;41950;55.840;37.442;2023-04-20T04:09:57;100270.75;;;8.81;42.02
56074;BME280;41950;55.840;37.442;2023-04-20T04:12:22;100300.91;;;9.02;41.98
56074;BME280;41950;55.840;37.442;2023-04-20T04:14:49;100302.63;;;9.15;41.97
56074;BME280;41950;55.840;37.442;2023-04-20T04:17:15;100287.97;;;9.08;41.56
56074;BME280;41950;55.840;37.442;2023-04-20T04:19:41;100174.19;;;8.55;41.41
56074;BME280;41950;55.840;37.442;2023-04-20T04:22:08;100249.13;;;9.02;41.48
56074;BME280;41950;55.840;37.442;2023-04-20T04:24:34;100255.16;;;9.15;41.68
56074;BME280;41950;55.840;37.442;2023-04-20T04:27:02;100285.34;;;9.28;41.44
56074;BME280;41950;55.840;37.442;2023-04-20T04:29:30;100292.22;;;9.40;41.43
56074;BME280;41950;55.840;37.442;2023-04-20T04:31:56;100299.13;;;9.44;41.41
56074;BME280;41950;55.840;37.442;2023-04-20T04:34:23;100249.94;;;9.27;41.63
56074;BME280;41950;55.840;37.442;2023-04-20T04:36:56;100232.69;;;9.23;41.55
56074;BME280;41950;55.840;37.442;2023-04-20T04:39:22;100237.84;;;9.35;41.30
56074;BME280;41950;55.840;37.442;2023-04-20T04:41:48;100266.25;;;9.55;40.99
56074;BME280;41950;55.840;37.442;2023-04-20T04:44:14;100259.34;;;9.54;41.31
56074;BME280;41950;55.840;37.442;2023-04-20T04:46:41;100255.03;;;9.60;41.45
56074;BME280;41950;55.840;37.442;2023-04-20T04:49:08;100245.47;;;9.70;41.31
56074;BME280;41950;55.840;37.442;2023-04-20T04:51:34;100244.56;;;9.76;41.18
56074;BME280;41950;55.840;37.442;2023-04-20T04:54:00;100212.66;;;9.66;41.13
56074;BME280;41950;55.840;37.442;2023-04-20T04:56:26;100273.78;;;10.05;40.99
56074;BME280;41950;55.840;37.442;2023-04-20T04:58:53;100268.56;;;10.11;41.31
56074;BME280;41950;55.840;37.442;2023-04-20T05:01:19;100254.78;;;10.03;41.12
56074;BME280;41950;55.840;37.442;2023-04-20T05:03:46;100273.72;;;10.24;40.87
56074;BME280;41950;55.840;37.442;2023-04-20T05:06:12;100269.31;;;10.36;40.63
56074;BME280;41950;55.840;37.442;2023-04-20T05:08:37;100256.31;;;10.38;40.54
56074;BME280;41950;55.840;37.442;2023-04-20T05:11:03;100262.28;;;10.53;39.97
56074;BME280;41950;55.840;37.442;2023-04-20T05:13:29;100244.09;;;10.53;40.24
56074;BME280;41950;55.840;37.442;2023-04-20T05:15:56;100219.94;;;10.48;39.90
56074;BME280;41950;55.840;37.442;2023-04-20T05:18:21;100268.03;;;10.86;39.88
56074;BME280;41950;55.840;37.442;2023-04-20T05:20:47;100225.00;;;10.59;39.41
56074;BME280;41950;55.840;37.442;2023-04-20T05:23:14;100224.91;;;10.71;39.78
56074;BME280;41950;55.840;37.442;2023-04-20T05:25:41;100207.56;;;10.75;39.79
56074;BME280;41950;55.840;37.442;2023-04-20T05:28:07;100258.31;;;11.08;39.35
56074;BME280;41950;55.840;37.442;2023-04-20T05:30:33;100223.00;;;10.89;39.40
56074;BME280;41950;55.840;37.442;2023-04-20T05:32:59;100196.22;;;10.85;39.64
56074;BME280;41950;55.840;37.442;2023-04-20T05:35:25;100208.19;;;11.00;38.99
56074;BME280;41950;55.840;37.442;2023-04-20T05:37:52;100190.84;;;11.03;39.21
56074;BME280;41950;55.840;37.442;2023-04-20T05:40:18;100193.41;;;11.06;38.43
56074;BME280;41950;55.840;37.442;2023-04-20T05:42:45;100242.25;;;11.49;38.69
56074;BME280;41950;55.840;37.442;2023-04-20T05:45:12;100241.22;;;11.64;39.09
56074;BME280;41950;55.840;37.442;2023-04-20T05:47:38;100233.25;;;11.76;38.75
56074;BME280;41950;55.840;37.442;2023-04-20T05:50:06;100242.66;;;11.89;38.16
56074;BME280;41950;55.840;37.442;2023-04-20T05:52:33;100187.50;;;11.63;37.94
56074;BME280;41950;55.840;37.442;2023-04-20T05:54:59;100060.06;;;11.06;37.44
56074;BME280;41950;55.840;37.442;2023-04-20T05:57:26;100217.31;;;12.02;37.45
56074;BME280;41950;55.840;37.442;2023-04-20T05:59:51;100186.16;;;11.97;37.15
56074;BME280;41950;55.840;37.442;2023-04-20T06:02:19;100223.88;;;12.27;37.28
56074;BME280;41950;55.840;37.442;2023-04-20T06:04:45;100197.91;;;12.24;37.13
56074;BME280;41950;55.840;37.442;2023-04-20T06:07:11;100190.88;;;12.29;36.86
56074;BME280;41950;55.840;37.442;2023-04-20T06:09:38;100135.78;;;12.03;36.89
56074;BME280;41950;55.840;37.442;2023-04-20T06:12:04;100061.59;;;11.81;36.55
56074;BME280;41950;55.840;37.442;2023-04-20T06:14:32;100205.03;;;12.65;36.44
56074;BME280;41950;55.840;37.442;2023-04-20T06:16:58;100180.84;;;12.60;36.17
56074;BME280;41950;55.840;37.442;2023-04-20T06:19:25;100247.78;;;13.03;35.83
56074;BME280;41950;55.840;37.442;2023-04-20T06:21:51;100226.88;;;13.06;35.72
56074;BME280;41950;55.840;37.442;2023-04-20T06:24:17;100217.16;;;13.14;35.84
56074;BME280;41950;55.840;37.442;2023-04-20T06:26:42;100200.84;;;13.05;35.64
56074;BME280;41950;55.840;37.442;2023-04-20T06:29:08;100195.41;;;13.17;35.36
56074;BME280;41950;55.840;37.442;2023-04-20T06:31:34;100205.47;;;13.35;34.85
56074;BME280;41950;55.840;37.442;2023-04-20T06:34:00;100165.88;;;13.16;34.66
56074;BME280;41950;55.840;37.442;2023-04-20T06:36:26;100230.84;;;13.69;35.25
56074;BME280;41950;55.840;37.442;2023-04-20T06:38:53;100213.38;;;13.74;35.11
56074;BME280;41950;55.840;37.442;2023-04-20T06:41:20;100197.63;;;13.78;34.19
56074;BME280;41950;55.840;37.442;2023-04-20T06:43:46;100226.69;;;14.02;34.58
56074;BME280;41950;55.840;37.442;2023-04-20T06:46:12;100204.00;;;14.04;33.57
56074;BME280;41950;55.840;37.442;2023-04-20T06:48:38;100224.41;;;14.25;33.16
56074;BME280;41950;55.840;37.442;2023-04-20T06:51:03;100189.91;;;14.11;32.60
56074;BME280;41950;55.840;37.442;2023-04-20T06:53:29;100192.38;;;14.17;32.29
56074;BME280;41950;55.840;37.442;2023-04-20T06:55:57;100074.91;;;13.46;32.39
56074;BME280;41950;55.840;37.442;2023-04-20T06:58:22;100187.84;;;14.25;32.18
56074;BME280;41950;55.840;37.442;2023-04-20T07:00:49;100217.00;;;14.44;31.72
56074;BME280;41950;55.840;37.442;2023-04-20T07:03:19;100215.00;;;14.55;31.91
56074;BME280;41950;55.840;37.442;2023-04-20T07:05:48;100197.66;;;14.52;31.79
56074;BME280;41950;55.840;37.442;2023-04-20T07:08:14;100197.50;;;14.59;32.00
56074;BME280;41950;55.840;37.442;2023-04-20T07:10:40;100198.25;;;14.62;32.10
56074;BME280;41950;55.840;37.442;2023-04-20T07:13:07;100176.59;;;14.59;32.00
56074;BME280;41950;55.840;37.442;2023-04-20T07:15:32;100211.72;;;14.81;31.89
56074;BME280;41950;55.840;37.442;2023-04-20T07:17:58;100090.63;;;14.15;32.15
56074;BME280;41950;55.840;37.442;2023-04-20T07:20:24;100182.09;;;14.82;31.51
56074;BME280;41950;55.840;37.442;2023-04-20T07:22:50;100200.94;;;14.93;31.81
56074;BME280;41950;55.840;37.442;2023-04-20T07:25:17;100162.06;;;14.81;31.52
56074;BME280;41950;55.840;37.442;2023-04-20T07:27:45;100180.84;;;14.95;31.80
56074;BME280;41950;55.840;37.442;2023-04-20T07:30:11;100198.81;;;15.07;30.75
56074;BME280;41950;55.840;37.442;2023-04-20T07:32:38;100182.38;;;15.02;31.13
56074;BME280;41950;55.840;37.442;2023-04-20T07:35:05;100146.31;;;14.84;31.59
56074;BME280;41950;55.840;37.442;2023-04-20T07:37:33;100173.53;;;15.06;30.97
56074;BME280;41950;55.840;37.442;2023-04-20T07:40:02;100194.06;;;15.22;30.32
56074;BME280;41950;55.840;37.442;2023-04-20T07:42:33;100179.31;;;15.19;30.12
56074;BME280;41950;55.840;37.442;2023-04-20T07:45:03;100183.94;;;15.40;30.08
56074;BME280;41950;55.840;37.442;2023-04-20T07:47:33;100186.94;;;15.56;29.55
56074;BME280;41950;55.840;37.442;2023-04-20T07:50:00;100153.03;;;15.53;28.93
56074;BME280;41950;55.840;37.442;2023-04-20T07:52:26;100154.22;;;15.72;28.50
56074;BME280;41950;55.840;37.442;2023-04-20T07:54:54;100177.72;;;16.02;28.73
56074;BME280;41950;55.840;37.442;2023-04-20T07:57:22;100152.84;;;16.15;27.90
56074;BME280;41950;55.840;37.442;2023-04-20T07:59:49;100176.03;;;16.54;27.63
56074;BME280;41950;55.840;37.442;2023-04-20T08:02:15;100147.44;;;16.48;25.80
56074;BME280;41950;55.840;37.442;2023-04-20T08:04:42;100182.81;;;16.59;25.57
56074;BME280;41950;55.840;37.442;2023-04-20T08:07:11;100161.97;;;16.30;25.22
56074;BME280;41950;55.840;37.442;2023-04-20T08:09:37;100159.56;;;16.24;25.44
56074;BME280;41950;55.840;37.442;2023-04-20T08:12:04;100167.28;;;16.28;25.80
56074;BME280;41950;55.840;37.442;2023-04-20T08:14:31;100137.34;;;16.35;25.19
56074;BME280;41950;55.840;37.442;2023-04-20T08:16:58;100145.66;;;16.75;25.03
56074;BME280;41950;55.840;37.442;2023-04-20T08:19:24;100159.91;;;16.91;23.64
56074;BME280;41950;55.840;37.442;2023-04-20T08:21:50;100155.63;;;16.88;24.19
56074;BME280;41950;55.840;37.442;2023-04-20T08:24:16;100159.84;;;16.92;23.74
56074;BME280;41950;55.840;37.442;2023-04-20T08:26:42;100119.72;;;16.65;24.29
56074;BME280;41950;55.840;37.442;2023-04-20T08:29:08;100159.88;;;17.16;24.58
56074;BME280;41950;55.840;37.442;2023-04-20T08:31:34;100110.03;;;16.92;23.97
56074;BME280;41950;55.840;37.442;2023-04-20T08:34:00;100152.63;;;17.22;24.05
56074;BME280;41950;55.840;37.442;2023-04-20T08:36:26;100152.81;;;17.41;23.75
56074;BME280;41950;55.840;37.442;2023-04-20T08:38:56;100143.78;;;17.48;23.84
56074;BME280;41950;55.840;37.442;2023-04-20T08:41:24;100123.75;;;17.01;24.16
56074;BME280;41950;55.840;37.442;2023-04-20T08:43:50;100129.19;;;16.71;25.10
56074;BME280;41950;55.840;37.442;2023-04-20T08:46:16;100142.38;;;16.68;25.52
56074;BME280;41950;55.840;37.442;2023-04-20T08:48:45;100130.78;;;16.49;25.39
56074;BME280;41950;55.840;37.442;2023-04-20T08:51:14;100120.50;;;16.43;25.47
56074;BME280;41950;55.840;37.442;2023-04-20T08:53:40;100126.38;;;16.24;25.88
56074;BME280;41950;55.840;37.442;2023-04-20T08:56:06;100126.28;;;16.01;26.32
56074;BME280;41950;55.840;37.442;2023-04-20T08:58:32;100109.47;;;15.80;26.28
56074;BME280;41950;55.840;37.442;2023-04-20T09:00:59;100120.81;;;15.81;26.85
56074;BME280;41950;55.840;37.442;2023-04-20T09:03:33;100144.69;;;15.98;26.97
56074;BME280;41950;55.840;37.442;2023-04-20T09:05:59;100124.34;;;16.06;26.86
56074;BME280;41950;55.840;37.442;2023-04-20T09:08:39;100134.28;;;16.49;27.19
56074;BME280;41950;55.840;37.442;2023-04-20T09:11:24;100106.22;;;16.26;26.48
56074;BME280;41950;55.840;37.442;2023-04-20T09:16:28;100133.28;;;16.27;26.48
56074;BME280;41950;55.840;37.442;2023-04-20T09:18:55;100128.78;;;16.30;26.44
56074;BME280;41950;55.840;37.442;2023-04-20T09:21:24;100082.97;;;16.17;26.24
56074;BME280;41950;55.840;37.442;2023-04-20T09:24:00;100075.63;;;16.02;25.93
56074;BME280;41950;55.840;37.442;2023-04-20T09:26:35;100105.81;;;16.12;26.04
56074;BME280;41950;55.840;37.442;2023-04-20T09:29:03;100107.13;;;15.99;25.93
56074;BME280;41950;55.840;37.442;2023-04-20T09:31:29;100079.75;;;15.83;26.11
56074;BME280;41950;55.840;37.442;2023-04-20T09:33:59;100097.84;;;16.15;26.76
56074;BME280;41950;55.840;37.442;2023-04-20T09:36:35;100117.94;;;16.41;26.01
56074;BME280;41950;55.840;37.442;2023-04-20T09:39:06;100075.13;;;16.17;24.92
56074;BME280;41950;55.840;37.442;2023-04-20T09:41:34;100111.84;;;16.41;25.38
56074;BME280;41950;55.840;37.442;2023-04-20T09:44:02;100105.50;;;16.48;25.69
56074;BME280;41950;55.840;37.442;2023-04-20T09:46:31;100033.41;;;16.11;24.96
56074;BME280;41950;55.840;37.442;2023-04-20T09:49:01;100108.38;;;16.65;24.87
56074;BME280;41950;55.840;37.442;2023-04-20T09:51:28;100086.09;;;16.53;25.13
56074;BME280;41950;55.840;37.442;2023-04-20T09:53:58;100058.34;;;16.48;25.07
56074;BME280;41950;55.840;37.442;2023-04-20T09:56:25;100110.38;;;16.83;24.84
56074;BME280;41950;55.840;37.442;2023-04-20T09:58:52;100021.94;;;16.88;24.83
56074;BME280;41950;55.840;37.442;2023-04-20T10:01:19;100083.84;;;17.83;23.71
56074;BME280;41950;55.840;37.442;2023-04-20T10:03:46;100045.88;;;18.32;23.55
56074;BME280;41950;55.840;37.442;2023-04-20T10:06:23;100079.88;;;19.15;23.37
56074;BME280;41950;55.840;37.442;2023-04-20T10:08:50;100081.47;;;19.19;22.31
56074;BME280;41950;55.840;37.442;2023-04-20T10:13:57;100085.13;;;19.71;21.97
56074;BME280;41950;55.840;37.442;2023-04-20T10:16:24;100076.41;;;19.88;21.69
56074;BME280;41950;55.840;37.442;2023-04-20T10:19:02;100057.16;;;20.05;21.99
56074;BME280;41950;55.840;37.442;2023-04-20T10:21:31;100066.69;;;20.42;20.70
56074;BME280;41950;55.840;37.442;2023-04-20T10:24:00;100068.69;;;20.54;20.24
56074;BME280;41950;55.840;37.442;2023-04-20T10:26:40;100068.66;;;20.72;19.15
56074;BME280;41950;55.840;37.442;2023-04-20T10:29:07;100072.38;;;20.85;19.56
56074;BME280;41950;55.840;37.442;2023-04-20T10:31:39;100068.03;;;20.99;19.48
56074;BME280;41950;55.840;37.442;2023-04-20T10:34:07;100074.69;;;21.07;18.91
56074;BME280;41950;55.840;37.442;2023-04-20T10:36:36;100046.28;;;21.12;18.22
56074;BME280;41950;55.840;37.442;2023-04-20T10:39:18;100061.84;;;21.79;18.51
56074;BME280;41950;55.840;37.442;2023-04-20T10:41:54;100062.38;;;22.16;18.38
56074;BME280;41950;55.840;37.442;2023-04-20T10:44:23;100044.72;;;22.75;17.67
56074;BME280;41950;55.840;37.442;2023-04-20T10:46:50;100052.03;;;23.41;17.34
56074;BME280;41950;55.840;37.442;2023-04-20T10:49:17;100031.13;;;23.36;17.38
56074;BME280;41950;55.840;37.442;2023-04-20T10:51:50;100057.34;;;22.70;18.08
56074;BME280;41950;55.840;37.442;2023-04-20T10:54:16;100052.25;;;22.67;18.82
56074;BME280;41950;55.840;37.442;2023-04-20T10:56:49;100048.44;;;23.28;18.94
56074;BME280;41950;55.840;37.442;2023-04-20T10:59:22;100032.00;;;23.37;18.76
56074;BME280;41950;55.840;37.442;2023-04-20T11:01:51;100060.28;;;23.22;18.49
56074;BME280;41950;55.840;37.442;2023-04-20T11:04:17;100052.06;;;22.56;19.03
56074;BME280;41950;55.840;37.442;2023-04-20T11:06:44;100035.78;;;22.33;20.18
56074;BME280;41950;55.840;37.442;2023-04-20T11:09:21;100052.06;;;22.56;19.06
56074;BME280;41950;55.840;37.442;2023-04-20T11:12:20;100033.63;;;22.40;19.55
56074;BME280;41950;55.840;37.442;2023-04-20T11:14:53;100020.13;;;22.73;18.81
56074;BME280;41950;55.840;37.442;2023-04-20T11:17:31;100033.16;;;23.19;18.87
56074;BME280;41950;55.840;37.442;2023-04-20T11:20:09;100034.16;;;22.89;18.31
56074;BME280;41950;55.840;37.442;2023-04-20T11:22:38;100029.50;;;23.07;18.46
56074;BME280;41950;55.840;37.442;2023-04-20T11:25:07;100036.53;;;23.35;18.35
56074;BME280;41950;55.840;37.442;2023-04-20T11:27:35;100031.72;;;23.27;18.13
56074;BME280;41950;55.840;37.442;2023-04-20T11:30:01;100012.50;;;23.38;18.39
56074;BME280;41950;55.840;37.442;2023-04-20T11:32:35;100024.38;;;23.99;18.07
56074;BME280;41950;55.840;37.442;2023-04-20T11:35:07;100028.59;;;24.54;17.58
56074;BME280;41950;55.840;37.442;2023-04-20T11:37:45;99988.97;;;24.25;17.32
56074;BME280;41950;55.840;37.442;2023-04-20T11:40:12;100013.00;;;23.84;17.05
56074;BME280;41950;55.840;37.442;2023-04-20T11:42:39;100015.31;;;23.08;17.79
56074;BME280;41950;55.840;37.442;2023-04-20T11:45:07;99984.25;;;22.83;18.45
56074;BME280;41950;55.840;37.442;2023-04-20T11:47:33;100014.59;;;23.33;18.29
56074;BME280;41950;55.840;37.442;2023-04-20T11:49:59;99990.28;;;23.67;17.94
56074;BME280;41950;55.840;37.442;2023-04-20T11:52:25;99953.47;;;23.36;17.30
56074;BME280;41950;55.840;37.442;2023-04-20T11:54:51;99991.94;;;23.56;17.82
56074;BME280;41950;55.840;37.442;2023-04-20T11:57:18;99989.50;;;23.11;18.13
56074;BME280;41950;55.840;37.442;2023-04-20T11:59:46;99966.06;;;23.05;18.06
56074;BME280;41950;55.840;37.442;2023-04-20T12:02:14;99993.97;;;23.24;18.73
56074;BME280;41950;55.840;37.442;2023-04-20T12:04:40;99975.81;;;22.34;19.33
56074;BME280;41950;55.840;37.442;2023-04-20T12:07:06;99944.44;;;21.39;19.98
56074;BME280;41950;55.840;37.442;2023-04-20T12:09:33;99956.72;;;21.24;20.12
56074;BME280;41950;55.840;37.442;2023-04-20T12:12:04;99981.91;;;21.14;20.70
56074;BME280;41950;55.840;37.442;2023-04-20T12:14:31;99961.03;;;20.62;21.25
56074;BME280;41950;55.840;37.442;2023-04-20T12:17:01;99974.56;;;20.72;21.21
56074;BME280;41950;55.840;37.442;2023-04-20T12:19:30;99974.56;;;21.19;20.76
56074;BME280;41950;55.840;37.442;2023-04-20T12:21:56;99981.81;;;21.00;20.57
56074;BME280;41950;55.840;37.442;2023-04-20T12:24:22;99969.00;;;20.28;21.27
56074;BME280;41950;55.840;37.442;2023-04-20T12:26:50;99938.66;;;19.69;21.97
56074;BME280;41950;55.840;37.442;2023-04-20T12:29:18;99943.06;;;19.68;21.79
56074;BME280;41950;55.840;37.442;2023-04-20T12:31:43;99972.75;;;20.06;21.84
56074;BME280;41950;55.840;37.442;2023-04-20T12:34:11;99949.47;;;21.28;20.92
56074;BME280;41950;55.840;37.442;2023-04-20T12:36:36;99939.06;;;22.43;20.06
56074;BME280;41950;55.840;37.442;2023-04-20T12:39:02;99944.03;;;23.05;18.52
56074;BME280;41950;55.840;37.442;2023-04-20T12:41:29;99937.88;;;21.90;19.33
56074;BME280;41950;55.840;37.442;2023-04-20T12:43:55;99893.91;;;20.84;20.53
56074;BME280;41950;55.840;37.442;2023-04-20T12:46:21;99932.38;;;20.39;20.47
56074;BME280;41950;55.840;37.442;2023-04-20T12:48:47;99897.13;;;20.24;21.52
56074;BME280;41950;55.840;37.442;2023-04-20T12:51:18;99930.91;;;20.66;20.99